Banquereau: Past 24 Hour Conditions

 

Natashquan Airport

03:00 PM EST 28 November 2014
This table is a summary of hourly weather conditions for the past 24 hours.
Date / Time
(EST)
Wind(knots) Conditions Visibility(km) Pressure(kPa) Air tempC) Relative humidity(%) Dew pointC) Wind Chill
28 November 2014
15:00 N 7 Sunny 16 101.6 -10 65 -15 -16
14:00 N 7 Sunny 16 101.6 -9 61 -15 -15
13:00 N 9 Sunny 16 101.6 -9 59 -15 -15
12:00 NNE 10 Sunny 16 101.6 -9 58 -16 -16
11:00 NE 8 Sunny 16 101.7 -9 60 -16 -16
10:00 NNE 9 Sunny 16 101.7 -10 64 -16 -18
9:00 NNE 8 Cloudy 16 101.8 -11 65 -17 -19
8:00 NNE 9 Cloudy 16 101.7 -12 69 -17 -20
7:00 NE 10 gust 16 Cloudy 16 101.7 -12 68 -17 -20
6:00 NNE 12 gust 17 Mostly Cloudy 16 101.6 -12 67 -17 -20
5:00 NNE 13 gust 18 Mostly Cloudy 16 101.6 -12 69 -16 -21
4:00 N 13 gust 20 Cloudy 16 101.5 -11 70 -16 -20
3:00 N 16 Cloudy 16 101.4 -11 66 -16 -21
2:00 N 12 Cloudy 16 101.4 -10 67 -15 -19
1:00 N 12 gust 18 Cloudy 16 101.3 -10 70 -14 -18
0:00 NNE 13 gust 23 Cloudy 16 101.2 -9 69 -14 -18
27 November 2014
23:00 NNE 18 gust 23 Cloudy 16 101.2 -9 68 -14 -19
22:00 N 13 gust 21 Partly Cloudy 16 101.1 -9 71 -13 -17
21:00 NNE 21 gust 29 Cloudy 15 100.9 -8 74 -12 -18
20:00 N 22 gust 28 Light Snow 15 101.0 -8 75 -12 -18
19:00 N 19 gust 28 Light Snow 13 100.9 -7 76 -11 -17
18:00 N 21 gust 29 Light Snow 5 100.8 -7 80 -10 -17
17:00 N 18 gust 28 Light Snow 3 100.7 -7 84 -10 -17
16:00 N 21 gust 29 Light Snow 2 100.6 -7 84 -10 -17
15:00 N 21 gust 30 Light Snow 2 100.5 -7 86 -9 -17
 
Map of Atlantic - Newfoundland marine weather areas Southwestern Grand Banks - 44138 Banquereau - 44139 Tail of the Bank - 44140 Nickerson Bank - 44251 Northeast Burgeo Bank - 44255 Blanc-Sablon Airport Cap Whittle Chevery Natashquan Airport Heath Point Miscou Island Grand Étang Ingonish Beach North Mountain St.Paul Island J.A. Douglas McCurdy Sydney Airport Charlottetown Airport East Point North Cape Argentia Bonavista Burgeo Cape Race Corner Brook Daniel's Harbour Englee Ferolle Point La Scie Port aux Basques Rocky Harbour Sagona Island St. Anthony Airport St. John's Int'l Airport St. Lawrence Stephenville Airport Twillingate Winterland Wreckhouse Cartwright Airport Mary's Harbour Grates Cove Pool's Island Marticot Island Long Pond Îles de la Madeleine Airport
Legend: buoyBuoy land stationLand Station